sensor_id;sensor_type;location;lat;lon;timestamp;P1;durP1;ratioP1;P2;durP2;ratioP2
325;SDS011;150;52.352;14.058;2022-08-05T00:00:15;6.80;;;6.40;;
325;SDS011;150;52.352;14.058;2022-08-05T00:02:43;6.70;;;6.30;;
325;SDS011;150;52.352;14.058;2022-08-05T00:05:10;7.20;;;6.80;;
325;SDS011;150;52.352;14.058;2022-08-05T00:07:38;9.00;;;7.32;;
325;SDS011;150;52.352;14.058;2022-08-05T00:10:05;5.90;;;5.63;;
325;SDS011;150;52.352;14.058;2022-08-05T00:12:32;7.13;;;6.30;;
325;SDS011;150;52.352;14.058;2022-08-05T00:14:58;6.70;;;6.10;;
325;SDS011;150;52.352;14.058;2022-08-05T00:17:25;7.75;;;6.65;;
325;SDS011;150;52.352;14.058;2022-08-05T00:19:52;6.85;;;6.18;;
325;SDS011;150;52.352;14.058;2022-08-05T00:22:18;7.18;;;6.78;;
325;SDS011;150;52.352;14.058;2022-08-05T00:24:46;7.20;;;6.78;;
325;SDS011;150;52.352;14.058;2022-08-05T00:27:13;8.27;;;6.57;;
325;SDS011;150;52.352;14.058;2022-08-05T00:29:40;6.60;;;6.18;;
325;SDS011;150;52.352;14.058;2022-08-05T00:32:06;6.97;;;6.30;;
325;SDS011;150;52.352;14.058;2022-08-05T00:34:36;6.97;;;6.57;;
325;SDS011;150;52.352;14.058;2022-08-05T00:37:03;6.95;;;6.55;;
325;SDS011;150;52.352;14.058;2022-08-05T00:39:30;6.47;;;5.95;;
325;SDS011;150;52.352;14.058;2022-08-05T00:41:58;7.20;;;6.80;;
325;SDS011;150;52.352;14.058;2022-08-05T00:44:24;6.70;;;6.30;;
325;SDS011;150;52.352;14.058;2022-08-05T00:46:51;7.95;;;7.22;;
325;SDS011;150;52.352;14.058;2022-08-05T00:49:18;7.00;;;6.60;;
325;SDS011;150;52.352;14.058;2022-08-05T00:51:44;8.70;;;6.65;;
325;SDS011;150;52.352;14.058;2022-08-05T00:54:11;7.10;;;6.75;;
325;SDS011;150;52.352;14.058;2022-08-05T00:56:38;6.60;;;6.20;;
325;SDS011;150;52.352;14.058;2022-08-05T00:59:06;6.30;;;5.95;;
325;SDS011;150;52.352;14.058;2022-08-05T01:01:33;6.10;;;5.80;;
325;SDS011;150;52.352;14.058;2022-08-05T01:04:00;7.70;;;7.30;;
325;SDS011;150;52.352;14.058;2022-08-05T01:06:27;9.57;;;6.88;;
325;SDS011;150;52.352;14.058;2022-08-05T01:08:53;6.50;;;6.10;;
325;SDS011;150;52.352;14.058;2022-08-05T01:11:21;8.07;;;5.85;;
325;SDS011;150;52.352;14.058;2022-08-05T01:13:55;6.65;;;6.30;;
325;SDS011;150;52.352;14.058;2022-08-05T01:16:29;6.32;;;5.97;;
325;SDS011;150;52.352;14.058;2022-08-05T01:19:15;5.95;;;5.65;;
325;SDS011;150;52.352;14.058;2022-08-05T01:22:06;5.82;;;5.40;;
325;SDS011;150;52.352;14.058;2022-08-05T01:24:48;5.63;;;5.38;;
325;SDS011;150;52.352;14.058;2022-08-05T01:27:28;7.60;;;5.28;;
325;SDS011;150;52.352;14.058;2022-08-05T01:30:11;6.03;;;5.72;;
325;SDS011;150;52.352;14.058;2022-08-05T01:32:39;6.53;;;5.95;;
325;SDS011;150;52.352;14.058;2022-08-05T01:35:10;5.85;;;5.28;;
325;SDS011;150;52.352;14.058;2022-08-05T01:37:41;5.20;;;4.90;;
325;SDS011;150;52.352;14.058;2022-08-05T01:40:10;5.95;;;5.47;;
325;SDS011;150;52.352;14.058;2022-08-05T01:42:40;6.15;;;5.85;;
325;SDS011;150;52.352;14.058;2022-08-05T01:45:10;5.55;;;5.00;;
325;SDS011;150;52.352;14.058;2022-08-05T01:47:40;5.70;;;5.10;;
325;SDS011;150;52.352;14.058;2022-08-05T01:50:10;6.32;;;6.00;;
325;SDS011;150;52.352;14.058;2022-08-05T01:52:39;7.65;;;5.30;;
325;SDS011;150;52.352;14.058;2022-08-05T01:55:08;5.20;;;5.00;;
325;SDS011;150;52.352;14.058;2022-08-05T01:57:38;5.78;;;5.53;;
325;SDS011;150;52.352;14.058;2022-08-05T02:00:08;7.30;;;6.10;;
325;SDS011;150;52.352;14.058;2022-08-05T02:13:09;6.05;;;5.75;;
325;SDS011;150;52.352;14.058;2022-08-05T02:20:02;7.57;;;6.40;;
325;SDS011;150;52.352;14.058;2022-08-05T02:23:32;6.40;;;6.00;;
325;SDS011;150;52.352;14.058;2022-08-05T02:26:22;6.65;;;6.25;;
325;SDS011;150;52.352;14.058;2022-08-05T02:28:57;6.53;;;6.13;;
325;SDS011;150;52.352;14.058;2022-08-05T02:31:50;5.78;;;5.47;;
325;SDS011;150;52.352;14.058;2022-08-05T02:34:32;6.90;;;5.90;;
325;SDS011;150;52.352;14.058;2022-08-05T02:37:08;6.30;;;5.95;;
325;SDS011;150;52.352;14.058;2022-08-05T02:40:40;7.20;;;6.20;;
325;SDS011;150;52.352;14.058;2022-08-05T02:43:36;7.25;;;5.80;;
325;SDS011;150;52.352;14.058;2022-08-05T02:46:26;6.35;;;6.00;;
325;SDS011;150;52.352;14.058;2022-08-05T02:49:21;7.50;;;5.85;;
325;SDS011;150;52.352;14.058;2022-08-05T02:52:22;7.05;;;6.60;;
325;SDS011;150;52.352;14.058;2022-08-05T02:55:01;6.50;;;6.10;;
325;SDS011;150;52.352;14.058;2022-08-05T02:57:30;7.38;;;6.97;;
325;SDS011;150;52.352;14.058;2022-08-05T03:00:04;6.55;;;6.15;;
325;SDS011;150;52.352;14.058;2022-08-05T03:02:40;6.50;;;6.10;;
325;SDS011;150;52.352;14.058;2022-08-05T03:05:21;6.57;;;6.17;;
325;SDS011;150;52.352;14.058;2022-08-05T03:07:48;6.43;;;6.03;;
325;SDS011;150;52.352;14.058;2022-08-05T03:10:18;6.40;;;6.05;;
325;SDS011;150;52.352;14.058;2022-08-05T03:12:48;6.50;;;6.10;;
325;SDS011;150;52.352;14.058;2022-08-05T03:15:28;6.20;;;5.90;;
325;SDS011;150;52.352;14.058;2022-08-05T03:18:12;6.20;;;5.90;;
325;SDS011;150;52.352;14.058;2022-08-05T03:20:51;5.93;;;5.65;;
325;SDS011;150;52.352;14.058;2022-08-05T03:23:21;6.05;;;5.65;;
325;SDS011;150;52.352;14.058;2022-08-05T03:26:18;6.70;;;6.30;;
325;SDS011;150;52.352;14.058;2022-08-05T03:28:53;6.93;;;6.53;;
325;SDS011;150;52.352;14.058;2022-08-05T03:35:09;6.37;;;6.03;;
325;SDS011;150;52.352;14.058;2022-08-05T03:37:48;6.68;;;5.95;;
325;SDS011;150;52.352;14.058;2022-08-05T03:40:52;6.72;;;6.32;;
325;SDS011;150;52.352;14.058;2022-08-05T03:44:05;7.00;;;6.60;;
325;SDS011;150;52.352;14.058;2022-08-05T03:46:31;9.85;;;6.63;;
325;SDS011;150;52.352;14.058;2022-08-05T03:48:58;7.22;;;6.82;;
325;SDS011;150;52.352;14.058;2022-08-05T03:51:27;8.60;;;6.40;;
325;SDS011;150;52.352;14.058;2022-08-05T03:53:56;8.27;;;7.13;;
325;SDS011;150;52.352;14.058;2022-08-05T03:56:26;7.60;;;6.97;;
325;SDS011;150;52.352;14.058;2022-08-05T03:58:59;6.93;;;6.50;;
325;SDS011;150;52.352;14.058;2022-08-05T04:01:29;7.30;;;6.90;;
325;SDS011;150;52.352;14.058;2022-08-05T04:03:57;8.65;;;7.47;;
325;SDS011;150;52.352;14.058;2022-08-05T04:06:26;7.53;;;7.20;;
325;SDS011;150;52.352;14.058;2022-08-05T04:08:53;7.82;;;7.10;;
325;SDS011;150;52.352;14.058;2022-08-05T04:11:20;7.35;;;6.95;;
325;SDS011;150;52.352;14.058;2022-08-05T04:13:50;6.90;;;6.60;;
325;SDS011;150;52.352;14.058;2022-08-05T04:16:18;8.27;;;6.90;;
325;SDS011;150;52.352;14.058;2022-08-05T04:18:47;8.88;;;6.45;;
325;SDS011;150;52.352;14.058;2022-08-05T04:21:13;7.25;;;6.85;;
325;SDS011;150;52.352;14.058;2022-08-05T04:23:41;8.60;;;8.10;;
325;SDS011;150;52.352;14.058;2022-08-05T04:26:08;7.90;;;7.50;;
325;SDS011;150;52.352;14.058;2022-08-05T04:28:35;9.23;;;7.13;;
325;SDS011;150;52.352;14.058;2022-08-05T04:31:01;7.95;;;7.55;;
325;SDS011;150;52.352;14.058;2022-08-05T04:33:28;7.60;;;6.38;;
325;SDS011;150;52.352;14.058;2022-08-05T04:35:56;8.90;;;8.00;;
325;SDS011;150;52.352;14.058;2022-08-05T04:38:23;7.95;;;6.85;;
325;SDS011;150;52.352;14.058;2022-08-05T04:40:49;8.10;;;7.70;;
325;SDS011;150;52.352;14.058;2022-08-05T04:43:16;8.70;;;8.20;;
325;SDS011;150;52.352;14.058;2022-08-05T04:45:43;10.25;;;8.02;;
325;SDS011;150;52.352;14.058;2022-08-05T04:48:10;8.20;;;7.80;;
325;SDS011;150;52.352;14.058;2022-08-05T04:50:38;16.10;;;8.80;;
325;SDS011;150;52.352;14.058;2022-08-05T04:53:07;7.80;;;7.40;;
325;SDS011;150;52.352;14.058;2022-08-05T04:55:35;7.97;;;7.60;;
325;SDS011;150;52.352;14.058;2022-08-05T04:58:02;9.10;;;8.40;;
325;SDS011;150;52.352;14.058;2022-08-05T05:00:29;9.25;;;8.75;;
325;SDS011;150;52.352;14.058;2022-08-05T05:02:56;8.93;;;8.43;;
325;SDS011;150;52.352;14.058;2022-08-05T05:05:23;12.70;;;8.52;;
325;SDS011;150;52.352;14.058;2022-08-05T05:07:50;8.68;;;8.18;;
325;SDS011;150;52.352;14.058;2022-08-05T05:10:18;10.70;;;8.73;;
325;SDS011;150;52.352;14.058;2022-08-05T05:12:45;13.15;;;8.68;;
325;SDS011;150;52.352;14.058;2022-08-05T05:15:11;11.48;;;8.88;;
325;SDS011;150;52.352;14.058;2022-08-05T05:17:38;9.38;;;8.88;;
325;SDS011;150;52.352;14.058;2022-08-05T05:20:06;8.97;;;8.47;;
325;SDS011;150;52.352;14.058;2022-08-05T05:22:34;9.47;;;8.60;;
325;SDS011;150;52.352;14.058;2022-08-05T05:25:00;9.85;;;9.35;;
325;SDS011;150;52.352;14.058;2022-08-05T05:27:29;9.20;;;8.70;;
325;SDS011;150;52.352;14.058;2022-08-05T05:29:57;10.13;;;8.95;;
325;SDS011;150;52.352;14.058;2022-08-05T05:32:23;10.23;;;9.50;;
325;SDS011;150;52.352;14.058;2022-08-05T05:34:50;9.98;;;9.48;;
325;SDS011;150;52.352;14.058;2022-08-05T05:37:17;9.98;;;9.48;;
325;SDS011;150;52.352;14.058;2022-08-05T05:39:43;11.80;;;10.83;;
325;SDS011;150;52.352;14.058;2022-08-05T05:42:10;12.00;;;11.40;;
325;SDS011;150;52.352;14.058;2022-08-05T05:44:38;11.83;;;11.23;;
325;SDS011;150;52.352;14.058;2022-08-05T05:47:05;17.45;;;12.93;;
325;SDS011;150;52.352;14.058;2022-08-05T05:49:31;17.38;;;13.25;;
325;SDS011;150;52.352;14.058;2022-08-05T05:51:58;13.63;;;12.93;;
325;SDS011;150;52.352;14.058;2022-08-05T05:54:25;12.65;;;11.13;;
325;SDS011;150;52.352;14.058;2022-08-05T05:56:51;12.30;;;11.70;;
325;SDS011;150;52.352;14.058;2022-08-05T05:59:18;12.68;;;11.25;;
325;SDS011;150;52.352;14.058;2022-08-05T06:01:46;12.87;;;10.80;;
325;SDS011;150;52.352;14.058;2022-08-05T06:04:13;12.23;;;10.77;;
325;SDS011;150;52.352;14.058;2022-08-05T06:06:39;15.05;;;11.90;;
325;SDS011;150;52.352;14.058;2022-08-05T06:09:07;10.98;;;10.38;;
325;SDS011;150;52.352;14.058;2022-08-05T06:11:34;11.88;;;11.27;;
325;SDS011;150;52.352;14.058;2022-08-05T06:14:00;12.13;;;11.52;;
325;SDS011;150;52.352;14.058;2022-08-05T06:16:27;10.18;;;9.68;;
325;SDS011;150;52.352;14.058;2022-08-05T06:18:55;9.73;;;9.02;;
325;SDS011;150;52.352;14.058;2022-08-05T06:21:22;11.17;;;10.00;;
325;SDS011;150;52.352;14.058;2022-08-05T06:23:48;8.55;;;8.05;;
325;SDS011;150;52.352;14.058;2022-08-05T06:26:15;9.20;;;8.70;;
325;SDS011;150;52.352;14.058;2022-08-05T06:28:42;8.63;;;8.13;;
325;SDS011;150;52.352;14.058;2022-08-05T06:31:08;8.97;;;8.50;;
325;SDS011;150;52.352;14.058;2022-08-05T06:33:36;8.00;;;7.40;;
325;SDS011;150;52.352;14.058;2022-08-05T06:36:04;7.88;;;7.47;;
325;SDS011;150;52.352;14.058;2022-08-05T06:38:31;9.02;;;8.00;;
325;SDS011;150;52.352;14.058;2022-08-05T06:40:57;10.70;;;7.30;;
325;SDS011;150;52.352;14.058;2022-08-05T06:43:24;9.48;;;8.98;;
325;SDS011;150;52.352;14.058;2022-08-05T06:45:50;9.70;;;9.20;;
325;SDS011;150;52.352;14.058;2022-08-05T06:48:17;17.27;;;9.75;;
325;SDS011;150;52.352;14.058;2022-08-05T06:50:44;9.77;;;9.27;;
325;SDS011;150;52.352;14.058;2022-08-05T06:53:12;10.40;;;8.65;;
325;SDS011;150;52.352;14.058;2022-08-05T06:55:39;9.02;;;8.52;;
325;SDS011;150;52.352;14.058;2022-08-05T06:58:06;10.18;;;9.00;;
325;SDS011;150;52.352;14.058;2022-08-05T07:00:32;14.55;;;8.95;;
325;SDS011;150;52.352;14.058;2022-08-05T07:02:59;8.70;;;8.20;;
325;SDS011;150;52.352;14.058;2022-08-05T07:05:26;8.50;;;8.00;;
325;SDS011;150;52.352;14.058;2022-08-05T07:07:52;8.30;;;7.90;;
325;SDS011;150;52.352;14.058;2022-08-05T07:10:20;7.80;;;7.40;;
325;SDS011;150;52.352;14.058;2022-08-05T07:12:49;8.20;;;7.80;;
325;SDS011;150;52.352;14.058;2022-08-05T07:15:33;8.10;;;7.72;;
325;SDS011;150;52.352;14.058;2022-08-05T07:18:17;8.38;;;7.93;;
325;SDS011;150;52.352;14.058;2022-08-05T07:20:44;7.80;;;7.40;;
325;SDS011;150;52.352;14.058;2022-08-05T07:23:11;10.30;;;8.02;;
325;SDS011;150;52.352;14.058;2022-08-05T07:25:38;8.00;;;7.60;;
325;SDS011;150;52.352;14.058;2022-08-05T07:28:05;7.47;;;7.07;;
325;SDS011;150;52.352;14.058;2022-08-05T07:30:35;8.13;;;7.72;;
325;SDS011;150;52.352;14.058;2022-08-05T07:33:03;7.50;;;7.10;;
325;SDS011;150;52.352;14.058;2022-08-05T07:35:30;7.20;;;6.80;;
325;SDS011;150;52.352;14.058;2022-08-05T07:37:57;12.93;;;9.05;;
325;SDS011;150;52.352;14.058;2022-08-05T07:40:24;8.20;;;7.80;;
325;SDS011;150;52.352;14.058;2022-08-05T07:42:52;10.13;;;7.50;;
325;SDS011;150;52.352;14.058;2022-08-05T07:45:18;7.60;;;7.20;;
325;SDS011;150;52.352;14.058;2022-08-05T07:47:45;10.23;;;7.00;;
325;SDS011;150;52.352;14.058;2022-08-05T07:50:12;6.53;;;5.63;;
325;SDS011;150;52.352;14.058;2022-08-05T07:52:39;6.70;;;6.30;;
325;SDS011;150;52.352;14.058;2022-08-05T07:55:06;6.17;;;5.77;;
325;SDS011;150;52.352;14.058;2022-08-05T07:57:33;8.60;;;8.10;;
325;SDS011;150;52.352;14.058;2022-08-05T08:00:02;9.55;;;9.05;;
325;SDS011;150;52.352;14.058;2022-08-05T08:02:30;6.80;;;6.40;;
325;SDS011;150;52.352;14.058;2022-08-05T08:04:57;5.68;;;5.38;;
325;SDS011;150;52.352;14.058;2022-08-05T08:07:24;6.90;;;6.00;;
325;SDS011;150;52.352;14.058;2022-08-05T08:09:51;6.57;;;6.20;;
325;SDS011;150;52.352;14.058;2022-08-05T08:12:18;6.32;;;6.00;;
325;SDS011;150;52.352;14.058;2022-08-05T08:14:45;7.90;;;6.30;;
325;SDS011;150;52.352;14.058;2022-08-05T08:17:13;5.70;;;5.40;;
325;SDS011;150;52.352;14.058;2022-08-05T08:19:40;5.70;;;5.40;;
325;SDS011;150;52.352;14.058;2022-08-05T08:22:07;9.43;;;6.07;;
325;SDS011;150;52.352;14.058;2022-08-05T08:24:34;11.90;;;5.70;;
325;SDS011;150;52.352;14.058;2022-08-05T08:27:02;5.80;;;5.30;;
325;SDS011;150;52.352;14.058;2022-08-05T08:29:29;5.50;;;5.20;;
325;SDS011;150;52.352;14.058;2022-08-05T08:31:55;6.00;;;5.70;;
325;SDS011;150;52.352;14.058;2022-08-05T08:34:24;7.57;;;4.90;;
325;SDS011;150;52.352;14.058;2022-08-05T08:36:51;9.50;;;6.95;;
325;SDS011;150;52.352;14.058;2022-08-05T08:39:20;5.88;;;4.90;;
325;SDS011;150;52.352;14.058;2022-08-05T08:41:48;12.60;;;5.25;;
325;SDS011;150;52.352;14.058;2022-08-05T08:44:17;4.68;;;3.78;;
325;SDS011;150;52.352;14.058;2022-08-05T08:46:46;5.53;;;4.47;;
325;SDS011;150;52.352;14.058;2022-08-05T08:49:13;4.40;;;4.00;;
325;SDS011;150;52.352;14.058;2022-08-05T08:51:43;4.60;;;4.30;;
325;SDS011;150;52.352;14.058;2022-08-05T08:54:13;6.13;;;4.40;;
325;SDS011;150;52.352;14.058;2022-08-05T08:56:40;10.60;;;8.98;;
325;SDS011;150;52.352;14.058;2022-08-05T08:59:07;6.82;;;5.50;;
325;SDS011;150;52.352;14.058;2022-08-05T09:01:35;5.80;;;4.30;;
325;SDS011;150;52.352;14.058;2022-08-05T09:04:03;4.95;;;3.55;;
325;SDS011;150;52.352;14.058;2022-08-05T09:06:30;4.10;;;3.85;;
325;SDS011;150;52.352;14.058;2022-08-05T09:08:58;3.95;;;3.47;;
325;SDS011;150;52.352;14.058;2022-08-05T09:11:26;4.15;;;3.80;;
325;SDS011;150;52.352;14.058;2022-08-05T09:13:53;5.65;;;3.78;;
325;SDS011;150;52.352;14.058;2022-08-05T09:16:20;4.95;;;4.00;;
325;SDS011;150;52.352;14.058;2022-08-05T09:18:47;4.35;;;3.95;;
325;SDS011;150;52.352;14.058;2022-08-05T09:21:14;4.40;;;4.10;;
325;SDS011;150;52.352;14.058;2022-08-05T09:23:41;4.88;;;4.57;;
325;SDS011;150;52.352;14.058;2022-08-05T09:26:12;5.07;;;4.82;;
325;SDS011;150;52.352;14.058;2022-08-05T09:28:41;4.90;;;4.60;;
325;SDS011;150;52.352;14.058;2022-08-05T09:31:09;5.90;;;5.20;;
325;SDS011;150;52.352;14.058;2022-08-05T09:33:46;7.13;;;4.70;;
325;SDS011;150;52.352;14.058;2022-08-05T09:36:14;9.40;;;5.20;;
325;SDS011;150;52.352;14.058;2022-08-05T09:38:54;5.80;;;4.57;;
325;SDS011;150;52.352;14.058;2022-08-05T09:41:23;4.90;;;4.70;;
325;SDS011;150;52.352;14.058;2022-08-05T09:43:50;4.85;;;4.50;;
325;SDS011;150;52.352;14.058;2022-08-05T09:46:24;6.88;;;4.38;;
325;SDS011;150;52.352;14.058;2022-08-05T09:48:52;5.32;;;4.40;;
325;SDS011;150;52.352;14.058;2022-08-05T09:51:29;5.00;;;4.10;;
325;SDS011;150;52.352;14.058;2022-08-05T09:53:57;4.10;;;3.90;;
325;SDS011;150;52.352;14.058;2022-08-05T09:56:26;8.73;;;5.43;;
325;SDS011;150;52.352;14.058;2022-08-05T09:58:55;4.20;;;3.70;;
325;SDS011;150;52.352;14.058;2022-08-05T10:01:26;5.80;;;4.70;;
325;SDS011;150;52.352;14.058;2022-08-05T10:03:54;4.30;;;4.00;;
325;SDS011;150;52.352;14.058;2022-08-05T10:06:23;5.25;;;3.75;;
325;SDS011;150;52.352;14.058;2022-08-05T10:08:51;4.20;;;3.60;;
325;SDS011;150;52.352;14.058;2022-08-05T10:11:18;4.40;;;4.10;;
325;SDS011;150;52.352;14.058;2022-08-05T10:13:46;4.97;;;4.70;;
325;SDS011;150;52.352;14.058;2022-08-05T10:16:28;4.70;;;3.80;;
325;SDS011;150;52.352;14.058;2022-08-05T10:18:57;5.18;;;4.88;;
325;SDS011;150;52.352;14.058;2022-08-05T10:21:25;10.98;;;4.70;;
325;SDS011;150;52.352;14.058;2022-08-05T10:23:52;6.65;;;6.25;;
325;SDS011;150;52.352;14.058;2022-08-05T10:26:18;4.13;;;3.40;;
325;SDS011;150;52.352;14.058;2022-08-05T10:28:47;3.53;;;3.20;;
325;SDS011;150;52.352;14.058;2022-08-05T10:31:15;4.78;;;3.72;;
325;SDS011;150;52.352;14.058;2022-08-05T10:33:42;5.63;;;4.20;;
325;SDS011;150;52.352;14.058;2022-08-05T10:36:09;4.55;;;4.22;;
325;SDS011;150;52.352;14.058;2022-08-05T10:38:36;4.50;;;4.23;;
325;SDS011;150;52.352;14.058;2022-08-05T10:41:06;3.53;;;3.30;;
325;SDS011;150;52.352;14.058;2022-08-05T10:43:42;4.30;;;4.00;;
325;SDS011;150;52.352;14.058;2022-08-05T10:46:17;4.88;;;3.53;;
325;SDS011;150;52.352;14.058;2022-08-05T10:48:46;4.93;;;3.67;;
325;SDS011;150;52.352;14.058;2022-08-05T10:51:13;6.30;;;3.97;;
325;SDS011;150;52.352;14.058;2022-08-05T10:53:43;4.87;;;3.80;;
325;SDS011;150;52.352;14.058;2022-08-05T10:56:18;3.03;;;2.83;;
325;SDS011;150;52.352;14.058;2022-08-05T10:58:48;6.20;;;3.40;;
325;SDS011;150;52.352;14.058;2022-08-05T11:01:29;4.20;;;3.40;;
325;SDS011;150;52.352;14.058;2022-08-05T11:04:00;3.40;;;3.20;;
325;SDS011;150;52.352;14.058;2022-08-05T11:06:28;3.85;;;3.20;;
325;SDS011;150;52.352;14.058;2022-08-05T11:09:09;9.18;;;4.97;;
325;SDS011;150;52.352;14.058;2022-08-05T11:11:36;4.32;;;3.22;;
325;SDS011;150;52.352;14.058;2022-08-05T11:14:04;4.80;;;4.00;;
325;SDS011;150;52.352;14.058;2022-08-05T11:16:32;3.55;;;2.90;;
325;SDS011;150;52.352;14.058;2022-08-05T11:21:51;4.00;;;2.92;;
325;SDS011;150;52.352;14.058;2022-08-05T11:24:18;3.67;;;2.83;;
325;SDS011;150;52.352;14.058;2022-08-05T11:26:45;5.63;;;2.60;;
325;SDS011;150;52.352;14.058;2022-08-05T11:34:59;8.93;;;2.97;;
325;SDS011;150;52.352;14.058;2022-08-05T11:37:40;3.65;;;2.50;;
325;SDS011;150;52.352;14.058;2022-08-05T11:40:08;8.13;;;3.30;;
325;SDS011;150;52.352;14.058;2022-08-05T11:42:35;2.90;;;2.53;;
325;SDS011;150;52.352;14.058;2022-08-05T11:45:12;8.07;;;3.05;;
325;SDS011;150;52.352;14.058;2022-08-05T11:47:38;6.00;;;2.17;;
325;SDS011;150;52.352;14.058;2022-08-05T11:50:05;6.93;;;2.20;;
325;SDS011;150;52.352;14.058;2022-08-05T11:52:32;3.95;;;2.00;;
325;SDS011;150;52.352;14.058;2022-08-05T11:54:59;4.43;;;2.08;;
325;SDS011;150;52.352;14.058;2022-08-05T11:57:29;2.67;;;1.88;;
325;SDS011;150;52.352;14.058;2022-08-05T11:59:56;4.60;;;2.20;;
325;SDS011;150;52.352;14.058;2022-08-05T12:02:25;6.00;;;2.35;;
325;SDS011;150;52.352;14.058;2022-08-05T12:04:53;5.10;;;2.20;;
325;SDS011;150;52.352;14.058;2022-08-05T12:07:20;3.20;;;2.20;;
325;SDS011;150;52.352;14.058;2022-08-05T12:09:47;7.47;;;2.85;;
325;SDS011;150;52.352;14.058;2022-08-05T12:12:21;5.10;;;2.53;;
325;SDS011;150;52.352;14.058;2022-08-05T12:14:48;4.03;;;2.95;;
325;SDS011;150;52.352;14.058;2022-08-05T12:17:15;3.30;;;2.60;;
325;SDS011;150;52.352;14.058;2022-08-05T12:19:44;3.88;;;2.10;;
325;SDS011;150;52.352;14.058;2022-08-05T12:22:12;3.20;;;2.10;;
325;SDS011;150;52.352;14.058;2022-08-05T12:24:40;4.40;;;2.70;;
325;SDS011;150;52.352;14.058;2022-08-05T12:27:07;3.50;;;2.60;;
325;SDS011;150;52.352;14.058;2022-08-05T12:29:34;4.32;;;2.40;;
325;SDS011;150;52.352;14.058;2022-08-05T12:32:02;3.80;;;2.70;;
325;SDS011;150;52.352;14.058;2022-08-05T12:34:32;4.50;;;2.60;;
325;SDS011;150;52.352;14.058;2022-08-05T12:37:04;4.85;;;3.28;;
325;SDS011;150;52.352;14.058;2022-08-05T12:39:35;4.00;;;2.60;;
325;SDS011;150;52.352;14.058;2022-08-05T12:42:06;3.88;;;2.92;;
325;SDS011;150;52.352;14.058;2022-08-05T12:44:39;3.80;;;2.67;;
325;SDS011;150;52.352;14.058;2022-08-05T12:47:06;4.28;;;2.55;;
325;SDS011;150;52.352;14.058;2022-08-05T12:49:39;3.90;;;3.17;;
325;SDS011;150;52.352;14.058;2022-08-05T12:52:12;4.55;;;3.35;;
325;SDS011;150;52.352;14.058;2022-08-05T12:54:39;4.83;;;2.70;;
325;SDS011;150;52.352;14.058;2022-08-05T12:57:08;2.75;;;2.63;;
325;SDS011;150;52.352;14.058;2022-08-05T12:59:45;3.30;;;3.20;;
325;SDS011;150;52.352;14.058;2022-08-05T13:02:18;4.00;;;3.03;;
325;SDS011;150;52.352;14.058;2022-08-05T13:04:46;5.07;;;2.97;;
325;SDS011;150;52.352;14.058;2022-08-05T13:07:16;3.70;;;2.53;;
325;SDS011;150;52.352;14.058;2022-08-05T13:09:47;4.60;;;2.72;;
325;SDS011;150;52.352;14.058;2022-08-05T13:12:16;3.75;;;2.90;;
325;SDS011;150;52.352;14.058;2022-08-05T13:14:44;3.15;;;2.50;;
325;SDS011;150;52.352;14.058;2022-08-05T13:17:15;3.00;;;2.20;;
325;SDS011;150;52.352;14.058;2022-08-05T13:19:56;3.80;;;2.65;;
325;SDS011;150;52.352;14.058;2022-08-05T13:22:25;4.53;;;2.58;;
325;SDS011;150;52.352;14.058;2022-08-05T13:24:52;4.30;;;2.60;;
325;SDS011;150;52.352;14.058;2022-08-05T13:27:23;3.45;;;2.55;;
325;SDS011;150;52.352;14.058;2022-08-05T13:29:50;3.00;;;2.03;;
325;SDS011;150;52.352;14.058;2022-08-05T13:32:17;3.00;;;2.13;;
325;SDS011;150;52.352;14.058;2022-08-05T13:34:45;4.70;;;2.60;;
325;SDS011;150;52.352;14.058;2022-08-05T13:37:11;3.88;;;2.65;;
325;SDS011;150;52.352;14.058;2022-08-05T13:39:39;3.08;;;2.88;;
325;SDS011;150;52.352;14.058;2022-08-05T13:42:06;4.00;;;2.80;;
325;SDS011;150;52.352;14.058;2022-08-05T13:44:33;3.50;;;2.50;;
325;SDS011;150;52.352;14.058;2022-08-05T13:47:00;2.50;;;2.33;;
325;SDS011;150;52.352;14.058;2022-08-05T13:49:26;3.20;;;2.20;;
325;SDS011;150;52.352;14.058;2022-08-05T13:51:53;3.28;;;2.47;;
325;SDS011;150;52.352;14.058;2022-08-05T13:54:20;3.50;;;2.10;;
325;SDS011;150;52.352;14.058;2022-08-05T13:56:48;5.13;;;3.58;;
325;SDS011;150;52.352;14.058;2022-08-05T14:01:50;3.13;;;2.30;;
325;SDS011;150;52.352;14.058;2022-08-05T14:04:17;3.28;;;2.58;;
325;SDS011;150;52.352;14.058;2022-08-05T14:07:02;3.53;;;2.20;;
325;SDS011;150;52.352;14.058;2022-08-05T14:09:28;3.60;;;2.70;;
325;SDS011;150;52.352;14.058;2022-08-05T14:11:56;3.78;;;2.85;;
325;SDS011;150;52.352;14.058;2022-08-05T14:14:23;3.73;;;2.80;;
325;SDS011;150;52.352;14.058;2022-08-05T14:16:49;3.30;;;2.65;;
325;SDS011;150;52.352;14.058;2022-08-05T14:19:16;3.80;;;2.40;;
325;SDS011;150;52.352;14.058;2022-08-05T14:21:43;3.97;;;2.50;;
325;SDS011;150;52.352;14.058;2022-08-05T14:24:09;3.50;;;2.65;;
325;SDS011;150;52.352;14.058;2022-08-05T14:26:36;2.97;;;2.72;;
325;SDS011;150;52.352;14.058;2022-08-05T14:29:05;5.80;;;2.63;;
325;SDS011;150;52.352;14.058;2022-08-05T14:31:31;4.10;;;2.63;;
325;SDS011;150;52.352;14.058;2022-08-05T14:33:58;3.20;;;2.70;;
325;SDS011;150;52.352;14.058;2022-08-05T14:36:25;5.20;;;3.42;;
325;SDS011;150;52.352;14.058;2022-08-05T14:38:51;3.40;;;2.97;;
325;SDS011;150;52.352;14.058;2022-08-05T14:41:18;3.00;;;2.60;;
325;SDS011;150;52.352;14.058;2022-08-05T14:43:45;3.47;;;2.40;;
325;SDS011;150;52.352;14.058;2022-08-05T14:46:13;3.95;;;3.28;;
325;SDS011;150;52.352;14.058;2022-08-05T14:48:39;3.22;;;2.40;;
325;SDS011;150;52.352;14.058;2022-08-05T14:51:06;4.25;;;2.42;;
325;SDS011;150;52.352;14.058;2022-08-05T14:53:33;2.35;;;1.98;;
325;SDS011;150;52.352;14.058;2022-08-05T14:55:59;3.63;;;2.50;;
325;SDS011;150;52.352;14.058;2022-08-05T14:58:26;2.55;;;2.20;;
325;SDS011;150;52.352;14.058;2022-08-05T15:00:52;3.40;;;2.53;;
325;SDS011;150;52.352;14.058;2022-08-05T15:03:20;3.90;;;2.25;;
325;SDS011;150;52.352;14.058;2022-08-05T15:05:47;2.40;;;1.77;;
325;SDS011;150;52.352;14.058;2022-08-05T15:08:13;2.80;;;1.95;;
325;SDS011;150;52.352;14.058;2022-08-05T15:10:40;2.40;;;2.23;;
325;SDS011;150;52.352;14.058;2022-08-05T15:13:07;4.15;;;2.53;;
325;SDS011;150;52.352;14.058;2022-08-05T15:15:34;3.53;;;2.33;;
325;SDS011;150;52.352;14.058;2022-08-05T15:18:00;2.92;;;2.50;;
325;SDS011;150;52.352;14.058;2022-08-05T15:20:28;4.18;;;2.35;;
325;SDS011;150;52.352;14.058;2022-08-05T15:22:55;3.60;;;2.60;;
325;SDS011;150;52.352;14.058;2022-08-05T15:25:21;2.72;;;1.90;;
325;SDS011;150;52.352;14.058;2022-08-05T15:27:48;3.38;;;2.30;;
325;SDS011;150;52.352;14.058;2022-08-05T15:30:15;4.10;;;2.70;;
325;SDS011;150;52.352;14.058;2022-08-05T15:32:42;4.07;;;2.88;;
325;SDS011;150;52.352;14.058;2022-08-05T15:35:08;4.03;;;3.63;;
325;SDS011;150;52.352;14.058;2022-08-05T15:37:36;4.70;;;3.00;;
325;SDS011;150;52.352;14.058;2022-08-05T15:40:03;6.20;;;2.75;;
325;SDS011;150;52.352;14.058;2022-08-05T15:42:30;5.15;;;2.67;;
325;SDS011;150;52.352;14.058;2022-08-05T15:44:58;2.72;;;2.50;;
325;SDS011;150;52.352;14.058;2022-08-05T15:47:24;3.37;;;2.83;;
325;SDS011;150;52.352;14.058;2022-08-05T15:49:51;3.83;;;2.70;;
325;SDS011;150;52.352;14.058;2022-08-05T15:52:18;3.38;;;2.50;;
325;SDS011;150;52.352;14.058;2022-08-05T15:54:46;5.00;;;2.67;;
325;SDS011;150;52.352;14.058;2022-08-05T15:57:13;3.83;;;2.92;;
325;SDS011;150;52.352;14.058;2022-08-05T15:59:40;2.95;;;2.40;;
325;SDS011;150;52.352;14.058;2022-08-05T16:02:06;3.90;;;3.15;;
325;SDS011;150;52.352;14.058;2022-08-05T16:04:33;4.17;;;2.87;;
325;SDS011;150;52.352;14.058;2022-08-05T16:07:00;4.07;;;2.50;;
325;SDS011;150;52.352;14.058;2022-08-05T16:09:26;2.90;;;2.67;;
325;SDS011;150;52.352;14.058;2022-08-05T16:11:54;2.90;;;2.40;;